Time;durP1;ratioP1;P1;durP2;ratioP2;P2;SDS_P1;SDS_P2;PMS_P1;PMS_P2;Temp;Humidity;BMP_temperature;BMP_pressure;BME280_temperature;BME280_humidity;BME280_pressure;Samples;Min_cycle;Max_cycle;Signal;HPM_P1;HPM_P2
2022/03/06 00:01:37;;;;;;;76.88;25.20;;;;;;;-148.23;100.00;61223.13;4981603;28;20041;-66
2022/03/06 00:04:03;;;;;;;77.35;23.50;;;;;;;-148.23;100.00;61223.13;4981910;28;20054;-65
2022/03/06 00:06:28;;;;;;;85.28;23.85;;;;;;;-148.23;100.00;61223.13;4984041;28;20026;-65
2022/03/06 00:08:53;;;;;;;80.38;22.67;;;;;;;-148.23;100.00;61223.13;4984445;28;20133;-65
2022/03/06 00:11:19;;;;;;;89.45;23.48;;;;;;;-148.23;100.00;61223.13;4980996;28;20100;-65
2022/03/06 00:13:44;;;;;;;80.70;24.15;;;;;;;-148.23;100.00;61223.13;4985198;28;21337;-66
2022/03/06 00:16:09;;;;;;;72.65;23.67;;;;;;;-148.23;100.00;61223.13;4981306;28;20424;-65
2022/03/06 00:18:37;;;;;;;71.70;22.75;;;;;;;-148.23;100.00;61223.13;4980224;28;20720;-65
2022/03/06 00:21:03;;;;;;;89.97;25.45;;;;;;;-148.23;100.00;61223.13;4983369;28;20034;-65
2022/03/06 00:23:28;;;;;;;80.43;24.08;;;;;;;-148.23;100.00;61223.13;4979354;28;20373;-65
2022/03/06 00:25:54;;;;;;;78.07;23.42;;;;;;;-148.23;100.00;61223.13;4983579;28;20488;-65
2022/03/06 00:28:19;;;;;;;77.00;23.58;;;;;;;-148.23;100.00;61223.13;4982635;28;20123;-65
2022/03/06 00:30:46;;;;;;;79.78;24.10;;;;;;;-148.23;100.00;61223.13;4982781;28;20050;-65
2022/03/06 00:33:12;;;;;;;81.22;23.73;;;;;;;-148.23;100.00;61223.13;4980673;28;20030;-65
2022/03/06 00:35:37;;;;;;;70.32;22.75;;;;;;;-148.23;100.00;61223.13;4981821;28;20187;-65
2022/03/06 00:38:03;;;;;;;70.85;23.92;;;;;;;-148.23;100.00;61223.13;4980823;28;20104;-65
2022/03/06 00:40:28;;;;;;;76.70;24.42;;;;;;;-148.23;100.00;61223.13;4983046;28;20354;-65
2022/03/06 00:42:54;;;;;;;75.40;23.17;;;;;;;-148.23;100.00;61223.13;4977825;28;20506;-66
2022/03/06 00:45:19;;;;;;;64.70;22.02;;;;;;;-148.23;100.00;61223.13;4983032;28;20730;-66
2022/03/06 00:47:45;;;;;;;71.10;21.02;;;;;;;-148.23;100.00;61223.13;4979071;28;20073;-66
2022/03/06 00:50:10;;;;;;;78.90;21.90;;;;;;;-148.23;100.00;61223.13;4980771;28;20033;-66
2022/03/06 00:52:37;;;;;;;69.32;22.17;;;;;;;-148.23;100.00;61223.13;4976908;28;20077;-66
2022/03/06 00:55:02;;;;;;;85.30;22.98;;;;;;;-148.23;100.00;61223.13;4985531;28;20033;-66
2022/03/06 00:57:28;;;;;;;80.22;22.63;;;;;;;-148.23;100.00;61223.13;4976252;28;20030;-66
2022/03/06 00:59:53;;;;;;;73.32;21.38;;;;;;;-148.23;100.00;61223.13;4978076;28;20041;-65
2022/03/06 01:02:18;;;;;;;75.68;23.50;;;;;;;-148.23;100.00;61223.13;4976892;28;20041;-65
2022/03/06 01:04:44;;;;;;;78.35;24.25;;;;;;;-148.23;100.00;61223.13;4983698;28;20068;-65
2022/03/06 01:07:09;;;;;;;77.82;24.65;;;;;;;-148.23;100.00;61223.13;4976912;28;20137;-65
2022/03/06 01:09:34;;;;;;;72.25;21.60;;;;;;;-148.23;100.00;61223.13;4981685;28;20382;-65
2022/03/06 01:12:00;;;;;;;72.88;23.40;;;;;;;-148.23;100.00;61223.13;4981423;28;20036;-66
2022/03/06 01:14:25;;;;;;;69.40;23.50;;;;;;;-148.23;100.00;61223.13;4979798;28;20569;-66
2022/03/06 01:16:50;;;;;;;76.85;21.55;;;;;;;-148.23;100.00;61223.13;4978598;28;20653;-65
2022/03/06 01:19:16;;;;;;;73.88;21.70;;;;;;;-148.23;100.00;61223.13;4977863;28;20427;-65
2022/03/06 01:21:41;;;;;;;71.53;23.90;;;;;;;-148.23;100.00;61223.13;4979945;28;20334;-65
2022/03/06 01:24:07;;;;;;;76.38;22.67;;;;;;;-148.23;100.00;61223.13;4980052;28;20169;-65
2022/03/06 01:26:32;;;;;;;65.28;21.73;;;;;;;-148.23;100.00;61223.13;4979258;28;20108;-65
2022/03/06 01:28:57;;;;;;;75.68;24.38;;;;;;;-148.23;100.00;61223.13;4972766;28;20046;-65
2022/03/06 01:31:23;;;;;;;73.95;21.48;;;;;;;-148.23;100.00;61223.13;4979566;28;20042;-65
2022/03/06 01:33:48;;;;;;;61.78;21.67;;;;;;;-148.23;100.00;61223.13;4979490;28;20042;-65
2022/03/06 01:36:13;;;;;;;77.63;21.98;;;;;;;-148.23;100.00;61223.13;4980827;28;20049;-65
2022/03/06 01:38:39;;;;;;;74.60;21.80;;;;;;;-148.23;100.00;61223.13;4977768;28;20061;-65
2022/03/06 01:41:04;;;;;;;61.28;19.70;;;;;;;-148.23;100.00;61223.13;4980074;28;20026;-65
2022/03/06 01:43:29;;;;;;;66.40;22.02;;;;;;;-148.23;100.00;61223.13;4965373;28;20026;-65
2022/03/06 01:45:55;;;;;;;64.85;22.15;;;;;;;-148.23;100.00;61223.13;4980155;28;20120;-65
2022/03/06 01:48:20;;;;;;;72.80;20.48;;;;;;;-148.23;100.00;61223.13;4980893;28;20516;-65
2022/03/06 01:50:46;;;;;;;61.67;18.90;;;;;;;-148.23;100.00;61223.13;4976131;28;20081;-65
2022/03/06 01:53:12;;;;;;;64.30;21.35;;;;;;;-148.23;100.00;61223.13;4974496;28;20593;-66
2022/03/06 01:55:38;;;;;;;70.97;19.70;;;;;;;-148.23;100.00;61223.13;4978986;28;20045;-65
2022/03/06 01:58:06;;;;;;;74.95;21.27;;;;;;;-148.23;100.00;61223.13;4979220;28;20038;-65
2022/03/06 02:00:44;;;;;;;65.75;20.77;;;;;;;-148.23;100.00;61223.13;4978821;28;20497;-66
2022/03/06 02:03:10;;;;;;;64.55;19.10;;;;;;;-148.23;100.00;61223.13;4991835;28;20038;-65
2022/03/06 02:05:37;;;;;;;52.08;17.05;;;;;;;-148.23;100.00;61223.13;4981743;28;20034;-65
2022/03/06 02:08:02;;;;;;;54.75;18.90;;;;;;;-148.23;100.00;61223.13;4980405;28;20027;-66
2022/03/06 02:10:28;;;;;;;63.35;21.15;;;;;;;-148.23;100.00;61223.13;4976233;28;20039;-65
2022/03/06 02:12:53;;;;;;;61.42;19.55;;;;;;;-148.23;100.00;61223.13;4980670;28;20362;-65
2022/03/06 02:15:19;;;;;;;61.22;18.63;;;;;;;-148.23;100.00;61223.13;4983538;28;20212;-65
2022/03/06 02:17:45;;;;;;;67.32;20.08;;;;;;;-148.23;100.00;61223.13;4980793;28;20033;-65
2022/03/06 02:20:19;;;;;;;63.15;19.25;;;;;;;-148.23;100.00;61223.13;4982846;28;20027;-65
2022/03/06 02:22:47;;;;;;;56.72;19.10;;;;;;;-148.23;100.00;61223.13;4984346;28;20026;-65
2022/03/06 02:25:20;;;;;;;65.82;18.77;;;;;;;-148.23;100.00;61223.13;4983919;28;20026;-66
2022/03/06 02:27:47;;;;;;;67.90;19.30;;;;;;;-148.23;100.00;61223.13;4983150;28;20066;-65
2022/03/06 02:30:17;;;;;;;52.53;18.23;;;;;;;-148.23;100.00;61223.13;4983769;28;20520;-65
2022/03/06 02:32:48;;;;;;;71.68;23.52;;;;;;;-148.23;100.00;61223.13;4981844;28;20405;-65
2022/03/06 02:35:14;;;;;;;58.78;18.90;;;;;;;-148.23;100.00;61223.13;4998018;28;20248;-65
2022/03/06 02:37:39;;;;;;;66.20;20.27;;;;;;;-148.23;100.00;61223.13;4984380;28;20030;-66
2022/03/06 02:40:08;;;;;;;63.85;19.48;;;;;;;-148.23;100.00;61223.13;4975028;28;20049;-66
2022/03/06 02:42:37;;;;;;;57.88;19.58;;;;;;;-148.23;100.00;61223.13;4982617;28;20117;-65
2022/03/06 02:45:23;;;;;;;56.88;17.50;;;;;;;-148.23;100.00;61223.13;4991959;28;20022;-65
2022/03/06 02:47:50;;;;;;;71.50;20.33;;;;;;;-148.23;100.00;61223.13;4984849;28;20327;-66
2022/03/06 02:50:18;;;;;;;56.30;18.65;;;;;;;-148.23;100.00;61223.13;4979733;28;20081;-65
2022/03/06 02:52:43;;;;;;;66.53;19.20;;;;;;;-148.23;100.00;61223.13;4982887;28;20050;-66
2022/03/06 02:55:10;;;;;;;59.28;20.05;;;;;;;-148.23;100.00;61223.13;4979396;28;20403;-66
2022/03/06 02:57:35;;;;;;;71.15;21.63;;;;;;;-148.23;100.00;61223.13;4982713;28;20029;-65
2022/03/06 03:00:01;;;;;;;68.80;20.58;;;;;;;-148.23;100.00;61223.13;4983639;28;20070;-66
2022/03/06 03:02:26;;;;;;;55.22;19.27;;;;;;;-148.23;100.00;61223.13;4978319;28;20037;-66
2022/03/06 03:04:52;;;;;;;60.45;19.77;;;;;;;-148.23;100.00;61223.13;4982425;28;20371;-66
2022/03/06 03:07:17;;;;;;;55.50;19.15;;;;;;;-148.23;100.00;61223.13;4981682;28;20512;-66
2022/03/06 03:09:43;;;;;;;55.85;18.80;;;;;;;-148.23;100.00;61223.13;4983566;28;20137;-66
2022/03/06 03:12:09;;;;;;;60.45;18.02;;;;;;;-148.23;100.00;61223.13;4984158;28;20353;-66
2022/03/06 03:14:35;;;;;;;55.83;17.90;;;;;;;-148.23;100.00;61223.13;4983242;28;20547;-66
2022/03/06 03:17:02;;;;;;;72.85;20.95;;;;;;;-148.23;100.00;61223.13;4977361;28;20033;-66
2022/03/06 03:19:27;;;;;;;59.08;18.27;;;;;;;-148.23;100.00;61223.13;4981325;28;20120;-66
2022/03/06 03:21:53;;;;;;;58.92;18.60;;;;;;;-148.23;100.00;61223.13;4982222;28;20112;-66
2022/03/06 03:24:18;;;;;;;58.42;19.23;;;;;;;-148.23;100.00;61223.13;4965005;28;20184;-66
2022/03/06 03:26:44;;;;;;;57.72;20.50;;;;;;;-148.23;100.00;61223.13;4983230;28;20470;-66
2022/03/06 03:29:09;;;;;;;52.92;18.52;;;;;;;-148.23;100.00;61223.13;4986279;28;20448;-66
2022/03/06 03:31:35;;;;;;;52.65;19.60;;;;;;;-148.23;100.00;61223.13;4984685;28;20031;-66
2022/03/06 03:34:00;;;;;;;60.03;20.35;;;;;;;-148.23;100.00;61223.13;4987837;28;20505;-66
2022/03/06 03:36:25;;;;;;;55.45;19.83;;;;;;;-148.23;100.00;61223.13;4983256;28;20531;-66
2022/03/06 03:38:51;;;;;;;52.55;18.17;;;;;;;-148.23;100.00;61223.13;4986915;28;20385;-66
2022/03/06 03:41:16;;;;;;;57.58;20.60;;;;;;;-148.23;100.00;61223.13;4978646;28;20038;-66
2022/03/06 03:43:41;;;;;;;60.40;20.95;;;;;;;-148.23;100.00;61223.13;4982984;28;20041;-66
2022/03/06 03:46:07;;;;;;;54.35;17.90;;;;;;;-148.23;100.00;61223.13;4983153;28;20038;-66
2022/03/06 03:48:32;;;;;;;54.63;19.55;;;;;;;-148.23;100.00;61223.13;4981887;28;20030;-66
2022/03/06 03:50:58;;;;;;;53.63;18.70;;;;;;;-148.23;100.00;61223.13;4979902;28;20037;-66
2022/03/06 03:53:23;;;;;;;52.17;18.42;;;;;;;-148.23;100.00;61223.13;4982866;28;20496;-66
2022/03/06 03:55:50;;;;;;;58.97;20.88;;;;;;;-148.23;100.00;61223.13;4979443;28;20080;-66
2022/03/06 03:58:15;;;;;;;60.03;19.33;;;;;;;-148.23;100.00;61223.13;4984074;28;20041;-66
2022/03/06 04:00:42;;;;;;;51.25;18.45;;;;;;;-148.23;100.00;61223.13;4980265;28;20034;-66
2022/03/06 04:03:08;;;;;;;58.05;21.83;;;;;;;-148.23;100.00;61223.13;4978026;28;20133;-66
2022/03/06 04:05:33;;;;;;;57.60;20.50;;;;;;;-148.23;100.00;61223.13;4980971;28;20044;-66
2022/03/06 04:07:58;;;;;;;45.13;17.98;;;;;;;-148.23;100.00;61223.13;4982476;28;20038;-66
2022/03/06 04:10:24;;;;;;;45.83;17.08;;;;;;;-148.23;100.00;61223.13;4977414;28;20035;-66
2022/03/06 04:12:49;;;;;;;51.13;17.23;;;;;;;-148.23;100.00;61223.13;4973815;28;20038;-66
2022/03/06 04:15:14;;;;;;;51.47;18.17;;;;;;;-148.23;100.00;61223.13;4982087;28;20038;-66
2022/03/06 04:17:40;;;;;;;66.40;20.40;;;;;;;-148.23;100.00;61223.13;4981679;28;20512;-66
2022/03/06 04:20:06;;;;;;;60.42;18.30;;;;;;;-148.23;100.00;61223.13;4979482;28;20524;-66
2022/03/06 04:22:32;;;;;;;55.95;18.60;;;;;;;-148.23;100.00;61223.13;4981048;28;20038;-66
2022/03/06 04:24:57;;;;;;;70.65;20.13;;;;;;;-148.23;100.00;61223.13;4982023;28;20361;-66
2022/03/06 04:27:22;;;;;;;56.70;19.73;;;;;;;-148.23;100.00;61223.13;4982507;28;20131;-66
2022/03/06 04:29:48;;;;;;;57.40;19.95;;;;;;;-148.23;100.00;61223.13;4962019;28;20038;-66
2022/03/06 04:32:13;;;;;;;48.45;19.08;;;;;;;-148.23;100.00;61223.13;4981265;28;20430;-66
2022/03/06 04:34:38;;;;;;;56.42;19.35;;;;;;;-148.23;100.00;61223.13;4983830;28;20041;-66
2022/03/06 04:37:04;;;;;;;60.55;21.23;;;;;;;-148.23;100.00;61223.13;4979684;28;20041;-66
2022/03/06 04:39:30;;;;;;;50.95;17.55;;;;;;;-148.23;100.00;61223.13;4982343;28;20026;-66
2022/03/06 04:41:55;;;;;;;55.13;20.77;;;;;;;-148.23;100.00;61223.13;4963381;28;20396;-66
2022/03/06 04:44:21;;;;;;;45.17;15.13;;;;;;;-148.23;100.00;61223.13;4984950;28;20065;-66
2022/03/06 04:46:46;;;;;;;49.35;18.90;;;;;;;-148.23;100.00;61223.13;4977772;28;20042;-66
2022/03/06 04:49:12;;;;;;;48.33;17.92;;;;;;;-148.23;100.00;61223.13;4982919;28;20493;-66
2022/03/06 04:51:38;;;;;;;49.75;18.60;;;;;;;-148.23;100.00;61223.13;4980399;28;20457;-66
2022/03/06 04:54:03;;;;;;;51.35;18.85;;;;;;;-148.23;100.00;61223.13;4980077;28;20034;-66
2022/03/06 04:56:29;;;;;;;49.22;17.25;;;;;;;-148.23;100.00;61223.13;4979803;28;20030;-66
2022/03/06 04:58:56;;;;;;;48.08;19.45;;;;;;;-148.23;100.00;61223.13;4980871;28;20476;-66
2022/03/06 05:01:21;;;;;;;49.03;18.02;;;;;;;-148.23;100.00;61223.13;4980642;28;20062;-66
2022/03/06 05:03:46;;;;;;;47.10;18.38;;;;;;;-148.23;100.00;61223.13;4983581;28;20034;-66
2022/03/06 05:06:12;;;;;;;52.17;21.08;;;;;;;-148.23;100.00;61223.13;4977459;28;20022;-69
2022/03/06 05:08:37;;;;;;;47.55;19.52;;;;;;;-148.23;100.00;61223.13;4984411;28;20042;-69
2022/03/06 05:11:02;;;;;;;48.78;18.98;;;;;;;-148.23;100.00;61223.13;4979031;28;20026;-66
2022/03/06 05:13:28;;;;;;;61.03;21.90;;;;;;;-148.23;100.00;61223.13;4974538;28;20065;-66
2022/03/06 05:15:53;;;;;;;50.03;19.02;;;;;;;-148.23;100.00;61223.13;4977452;28;20034;-66
2022/03/06 05:18:18;;;;;;;55.13;18.75;;;;;;;-148.23;100.00;61223.13;4981878;28;20034;-66
2022/03/06 05:20:44;;;;;;;52.28;18.25;;;;;;;-148.23;100.00;61223.13;4969725;28;20022;-66
2022/03/06 05:23:09;;;;;;;49.97;18.55;;;;;;;-148.23;100.00;61223.13;4982087;28;20034;-66
2022/03/06 05:25:35;;;;;;;55.10;19.88;;;;;;;-148.23;100.00;61223.13;4978537;28;20048;-66
2022/03/06 05:28:00;;;;;;;43.90;17.30;;;;;;;-148.23;100.00;61223.13;4983883;28;20045;-66
2022/03/06 05:30:25;;;;;;;51.45;20.00;;;;;;;-148.23;100.00;61223.13;4978817;28;20053;-66
2022/03/06 05:32:51;;;;;;;50.17;17.73;;;;;;;-148.23;100.00;61223.13;4979717;28;20432;-66
2022/03/06 05:35:16;;;;;;;52.92;20.00;;;;;;;-148.23;100.00;61223.13;4975157;28;20126;-66
2022/03/06 05:37:42;;;;;;;67.50;21.77;;;;;;;-148.23;100.00;61223.13;4983777;28;20030;-66
2022/03/06 05:40:07;;;;;;;53.83;20.10;;;;;;;-148.23;100.00;61223.13;4980824;28;20057;-66
2022/03/06 05:42:33;;;;;;;52.33;20.80;;;;;;;-148.23;100.00;61223.13;4979250;28;20109;-66
2022/03/06 05:44:59;;;;;;;48.90;17.88;;;;;;;-148.23;100.00;61223.13;4978670;28;20141;-66
2022/03/06 05:47:24;;;;;;;55.20;19.95;;;;;;;-148.23;100.00;61223.13;4980246;28;20034;-67
2022/03/06 05:49:49;;;;;;;51.92;17.92;;;;;;;-148.23;100.00;61223.13;4984113;28;20089;-66
2022/03/06 05:52:16;;;;;;;50.00;19.27;;;;;;;-148.23;100.00;61223.13;4982934;28;20038;-66
2022/03/06 05:54:41;;;;;;;58.65;19.98;;;;;;;-148.23;100.00;61223.13;4985922;28;20034;-66
2022/03/06 05:57:07;;;;;;;54.65;18.98;;;;;;;-148.23;100.00;61223.13;4981216;28;20045;-66
2022/03/06 05:59:32;;;;;;;45.60;16.15;;;;;;;-148.23;100.00;61223.13;4984529;28;20108;-66
2022/03/06 06:01:57;;;;;;;54.97;20.30;;;;;;;-148.23;100.00;61223.13;4985276;28;20034;-66
2022/03/06 06:04:23;;;;;;;57.40;20.50;;;;;;;-148.23;100.00;61223.13;4985661;28;20031;-66
2022/03/06 06:06:48;;;;;;;63.80;21.40;;;;;;;-148.23;100.00;61223.13;4986958;28;20128;-66
2022/03/06 06:09:14;;;;;;;47.92;18.88;;;;;;;-148.23;100.00;61223.13;4990265;28;20042;-66
2022/03/06 06:11:39;;;;;;;45.63;19.00;;;;;;;-148.23;100.00;61223.13;4985557;28;20085;-66
2022/03/06 06:14:05;;;;;;;49.10;19.05;;;;;;;-148.23;100.00;61223.13;4988423;28;20034;-66
2022/03/06 06:16:33;;;;;;;56.78;19.85;;;;;;;-148.23;100.00;61223.13;4981350;28;20071;-66
2022/03/06 06:18:58;;;;;;;56.28;20.77;;;;;;;-148.23;100.00;61223.13;4990302;28;20038;-66
2022/03/06 06:21:24;;;;;;;58.08;19.30;;;;;;;-148.23;100.00;61223.13;4984358;28;20030;-66
2022/03/06 06:23:49;;;;;;;46.08;18.45;;;;;;;-148.23;100.00;61223.13;4987760;28;20034;-66
2022/03/06 06:26:15;;;;;;;54.17;19.50;;;;;;;-148.23;100.00;61223.13;4984806;28;20030;-66
2022/03/06 06:28:41;;;;;;;47.70;17.35;;;;;;;-148.23;100.00;61223.13;4980413;28;20094;-66
2022/03/06 06:31:07;;;;;;;60.90;19.00;;;;;;;-148.23;100.00;61223.13;4981696;28;20497;-66
2022/03/06 06:33:33;;;;;;;48.25;17.30;;;;;;;-148.23;100.00;61223.13;4987779;28;20544;-66
2022/03/06 06:35:58;;;;;;;51.83;18.60;;;;;;;-148.23;100.00;61223.13;4979637;28;20045;-66
2022/03/06 06:38:24;;;;;;;40.10;15.80;;;;;;;-148.23;100.00;61223.13;4987997;28;20481;-66
2022/03/06 06:40:51;;;;;;;53.00;19.88;;;;;;;-148.23;100.00;61223.13;4985655;28;20034;-66
2022/03/06 06:43:16;;;;;;;48.13;18.67;;;;;;;-148.23;100.00;61223.13;4987719;28;20460;-66
2022/03/06 06:45:42;;;;;;;51.63;17.52;;;;;;;-148.23;100.00;61223.13;4983763;28;20034;-66
2022/03/06 06:48:07;;;;;;;47.25;17.73;;;;;;;-148.23;100.00;61223.13;4986565;28;20092;-66
2022/03/06 06:50:33;;;;;;;45.03;17.95;;;;;;;-148.23;100.00;61223.13;4986485;28;20868;-66
2022/03/06 06:52:58;;;;;;;51.00;19.17;;;;;;;-148.23;100.00;61223.13;4985752;28;20066;-66
2022/03/06 06:55:23;;;;;;;55.40;20.50;;;;;;;-148.23;100.00;61223.13;4989814;28;20038;-65
2022/03/06 06:57:48;;;;;;;54.83;20.08;;;;;;;-148.23;100.00;61223.13;4985426;28;20401;-66
2022/03/06 07:00:14;;;;;;;54.30;19.63;;;;;;;-148.23;100.00;61223.13;4982707;28;20396;-66
2022/03/06 07:02:40;;;;;;;58.38;19.33;;;;;;;-148.23;100.00;61223.13;4980542;28;20038;-66
2022/03/06 07:05:06;;;;;;;54.47;19.48;;;;;;;-148.23;100.00;61223.13;4989472;28;20113;-66
2022/03/06 07:07:31;;;;;;;48.25;19.10;;;;;;;-148.23;100.00;61223.13;4984465;28;20673;-66
2022/03/06 07:09:57;;;;;;;46.58;18.45;;;;;;;-148.23;100.00;61223.13;4979465;28;20129;-66
2022/03/06 07:12:22;;;;;;;58.08;20.55;;;;;;;-148.23;100.00;61223.13;4983285;28;20074;-66
2022/03/06 07:14:47;;;;;;;43.25;16.70;;;;;;;-148.23;100.00;61223.13;4987800;28;20056;-66
2022/03/06 07:17:13;;;;;;;52.63;18.20;;;;;;;-148.23;100.00;61223.13;4981233;28;20035;-66
2022/03/06 07:19:38;;;;;;;51.50;17.77;;;;;;;-148.23;100.00;61223.13;4983593;28;20204;-66
2022/03/06 07:22:04;;;;;;;46.67;17.58;;;;;;;-148.23;100.00;61223.13;4980121;28;20117;-66
2022/03/06 07:24:29;;;;;;;46.50;18.55;;;;;;;-148.23;100.00;61223.13;4983333;28;20125;-65
2022/03/06 07:26:54;;;;;;;45.63;18.42;;;;;;;-148.23;100.00;61223.13;4979116;28;20141;-66
2022/03/06 07:29:20;;;;;;;48.90;19.70;;;;;;;-148.23;100.00;61223.13;4983335;28;20181;-66
2022/03/06 07:31:45;;;;;;;48.47;17.02;;;;;;;-148.23;100.00;61223.13;4979798;28;20034;-65
2022/03/06 07:34:10;;;;;;;42.15;16.77;;;;;;;-148.23;100.00;61223.13;4982058;28;20452;-66
2022/03/06 07:36:35;;;;;;;50.63;19.40;;;;;;;-148.23;100.00;61223.13;4980168;28;20060;-65
2022/03/06 07:39:01;;;;;;;47.67;17.70;;;;;;;-148.23;100.00;61223.13;4982379;28;20562;-65
2022/03/06 07:41:26;;;;;;;50.35;20.67;;;;;;;-148.23;100.00;61223.13;4978711;28;20453;-65
2022/03/06 07:43:51;;;;;;;49.90;20.13;;;;;;;-148.23;100.00;61223.13;4983992;28;20528;-65
2022/03/06 07:46:17;;;;;;;46.78;19.10;;;;;;;-148.23;100.00;61223.13;4959522;28;20062;-65
2022/03/06 07:48:42;;;;;;;51.08;20.42;;;;;;;-148.23;100.00;61223.13;4966708;28;20109;-66
2022/03/06 07:51:07;;;;;;;52.08;20.63;;;;;;;-148.23;100.00;61223.13;4980631;28;20069;-65
2022/03/06 07:53:33;;;;;;;53.58;21.63;;;;;;;-148.23;100.00;61223.13;4982782;28;20122;-65
2022/03/06 07:55:58;;;;;;;49.95;19.23;;;;;;;-148.23;100.00;61223.13;4977905;28;20038;-65
2022/03/06 07:58:23;;;;;;;46.60;16.40;;;;;;;-148.23;100.00;61223.13;4981447;28;20042;-65
2022/03/06 08:00:49;;;;;;;45.60;20.58;;;;;;;-148.23;100.00;61223.13;4979028;28;20536;-65
2022/03/06 08:03:15;;;;;;;52.70;21.00;;;;;;;-148.23;100.00;61223.13;4978984;28;20040;-65
2022/03/06 08:05:41;;;;;;;51.83;21.00;;;;;;;-148.23;100.00;61223.13;4980770;28;20033;-65
2022/03/06 08:08:06;;;;;;;51.63;22.60;;;;;;;-148.23;100.00;61223.13;4981205;28;20034;-65
2022/03/06 08:10:31;;;;;;;50.20;19.02;;;;;;;-148.23;100.00;61223.13;4980603;28;20022;-65
2022/03/06 08:12:57;;;;;;;57.03;21.50;;;;;;;-148.23;100.00;61223.13;4979733;28;20132;-66
2022/03/06 08:15:22;;;;;;;55.20;22.23;;;;;;;-148.23;100.00;61223.13;4974034;28;20030;-65
2022/03/06 08:17:48;;;;;;;44.85;18.38;;;;;;;-148.23;100.00;61223.13;4972945;28;20469;-65
2022/03/06 08:20:14;;;;;;;44.88;20.02;;;;;;;-148.23;100.00;61223.13;4981204;28;20492;-66
2022/03/06 08:22:39;;;;;;;52.90;20.67;;;;;;;-148.23;100.00;61223.13;4971809;28;20026;-65
2022/03/06 08:25:05;;;;;;;49.22;21.13;;;;;;;-148.23;100.00;61223.13;4977944;28;20034;-66
2022/03/06 08:27:32;;;;;;;53.25;21.27;;;;;;;-148.23;100.00;61223.13;4962611;28;20133;-65
2022/03/06 08:29:57;;;;;;;52.03;21.02;;;;;;;-148.23;100.00;61223.13;4975923;28;20156;-65
2022/03/06 08:32:23;;;;;;;52.15;22.08;;;;;;;-148.23;100.00;61223.13;4976982;28;20033;-66
2022/03/06 08:34:51;;;;;;;54.58;21.33;;;;;;;-148.23;100.00;61223.13;4981730;28;20034;-65
2022/03/06 08:37:17;;;;;;;54.72;22.08;;;;;;;-148.23;100.00;61223.13;4977582;28;20041;-65
2022/03/06 08:39:42;;;;;;;53.72;23.25;;;;;;;-148.23;100.00;61223.13;4981831;28;20022;-66
2022/03/06 08:42:08;;;;;;;58.53;24.40;;;;;;;-148.23;100.00;61223.13;4976278;28;20041;-66
2022/03/06 08:44:33;;;;;;;57.38;21.42;;;;;;;-148.23;100.00;61223.13;4979697;28;20132;-65
2022/03/06 08:46:58;;;;;;;45.90;21.77;;;;;;;-148.23;100.00;61223.13;4977741;28;20548;-65
2022/03/06 08:49:24;;;;;;;45.70;18.08;;;;;;;-148.23;100.00;61223.13;4981906;28;20485;-66
2022/03/06 08:51:49;;;;;;;54.38;22.65;;;;;;;-148.23;100.00;61223.13;4976188;28;20271;-66
2022/03/06 08:54:15;;;;;;;51.25;22.58;;;;;;;-148.23;100.00;61223.13;4980175;28;20570;-67
2022/03/06 08:56:40;;;;;;;50.22;22.08;;;;;;;-148.23;100.00;61223.13;4979707;28;20733;-67
2022/03/06 08:59:06;;;;;;;53.83;23.95;;;;;;;-148.23;100.00;61223.13;4982883;28;20022;-66
2022/03/06 09:01:31;;;;;;;52.47;23.05;;;;;;;-148.23;100.00;61223.13;4980048;28;20022;-67
2022/03/06 09:03:56;;;;;;;52.97;22.52;;;;;;;-148.23;100.00;61223.13;4969543;28;20031;-65
2022/03/06 09:06:22;;;;;;;53.88;23.50;;;;;;;-148.23;100.00;61223.13;4979970;28;20026;-68
2022/03/06 09:08:47;;;;;;;54.53;23.08;;;;;;;-148.23;100.00;61223.13;4980575;28;20282;-66
2022/03/06 09:11:12;;;;;;;52.03;22.85;;;;;;;-148.23;100.00;61223.13;4977875;28;20484;-66
2022/03/06 09:13:38;;;;;;;56.05;23.63;;;;;;;-148.23;100.00;61223.13;4972429;28;20040;-66
2022/03/06 09:16:04;;;;;;;61.88;23.92;;;;;;;-148.23;100.00;61223.13;4979401;28;20066;-66
2022/03/06 09:18:30;;;;;;;52.35;22.95;;;;;;;-148.23;100.00;61223.13;4977014;28;20525;-65
2022/03/06 09:20:55;;;;;;;52.35;23.67;;;;;;;-148.23;100.00;61223.13;4976699;28;20117;-66
2022/03/06 09:23:21;;;;;;;51.33;22.83;;;;;;;-148.23;100.00;61223.13;4980463;28;20054;-65
2022/03/06 09:25:46;;;;;;;62.60;23.88;;;;;;;-148.23;100.00;61223.13;4977812;28;20026;-65
2022/03/06 09:28:12;;;;;;;54.03;23.40;;;;;;;-148.23;100.00;61223.13;4980874;28;20461;-65
2022/03/06 09:30:38;;;;;;;58.17;23.40;;;;;;;-148.23;100.00;61223.13;4987367;28;20026;-65
2022/03/06 09:33:04;;;;;;;55.47;22.52;;;;;;;-148.23;100.00;61223.13;4978334;28;20504;-66
2022/03/06 09:35:29;;;;;;;56.38;24.02;;;;;;;-148.23;100.00;61223.13;4979096;28;20030;-66
2022/03/06 09:37:54;;;;;;;46.17;20.90;;;;;;;-148.23;100.00;61223.13;4975951;28;20030;-65
2022/03/06 09:40:20;;;;;;;51.45;22.00;;;;;;;-148.23;100.00;61223.13;4975605;28;20030;-65
2022/03/06 09:42:45;;;;;;;54.50;22.13;;;;;;;-148.23;100.00;61223.13;4975008;28;20027;-65
2022/03/06 09:45:12;;;;;;;48.33;17.75;;;;;;;-148.23;100.00;61223.13;4977562;28;20109;-65
2022/03/06 09:47:39;;;;;;;48.40;20.98;;;;;;;-148.23;100.00;61223.13;4976458;28;20030;-66
2022/03/06 09:50:06;;;;;;;53.15;22.73;;;;;;;-148.23;100.00;61223.13;4960800;28;20570;-65
2022/03/06 09:52:32;;;;;;;41.47;20.58;;;;;;;-148.23;100.00;61223.13;4976990;28;20030;-65
2022/03/06 09:54:57;;;;;;;51.03;23.25;;;;;;;-148.23;100.00;61223.13;4973482;28;20037;-65
2022/03/06 09:57:23;;;;;;;46.13;20.17;;;;;;;-148.23;100.00;61223.13;4979088;28;20845;-65
2022/03/06 09:59:48;;;;;;;55.20;21.70;;;;;;;-148.23;100.00;61223.13;4977673;28;20185;-66
2022/03/06 10:02:14;;;;;;;51.08;19.70;;;;;;;-148.23;100.00;61223.13;4979540;28;20057;-66
2022/03/06 10:04:40;;;;;;;54.50;26.35;;;;;;;-148.23;100.00;61223.13;4973870;28;20037;-66
2022/03/06 10:07:08;;;;;;;43.83;19.52;;;;;;;-148.23;100.00;61223.13;4979702;28;20038;-66
2022/03/06 10:09:44;;;;;;;55.13;23.10;;;;;;;-148.23;100.00;61223.13;4979773;28;20095;-66
2022/03/06 10:12:20;;;;;;;48.28;21.77;;;;;;;-148.23;100.00;61223.13;4976200;28;20038;-65
2022/03/06 10:14:46;;;;;;;39.58;18.63;;;;;;;-148.23;100.00;61223.13;4979286;28;20084;-66
2022/03/06 10:17:13;;;;;;;46.00;21.30;;;;;;;-148.23;100.00;61223.13;4978593;28;20126;-65
2022/03/06 10:19:48;;;;;;;47.03;20.77;;;;;;;-148.23;100.00;61223.13;4978643;28;20093;-65
2022/03/06 10:22:13;;;;;;;51.63;20.05;;;;;;;-148.23;100.00;61223.13;4978874;28;20038;-66
2022/03/06 10:24:54;;;;;;;37.25;18.90;;;;;;;-148.23;100.00;61223.13;4973578;28;20080;-66
2022/03/06 10:27:44;;;;;;;46.17;24.58;;;;;;;-148.23;100.00;61223.13;4977417;28;20547;-65
2022/03/06 10:30:35;;;;;;;45.50;21.58;;;;;;;-148.23;100.00;61223.13;4980506;28;20045;-66
2022/03/06 10:33:05;;;;;;;42.42;19.02;;;;;;;-148.23;100.00;61223.13;4975292;28;20074;-66
2022/03/06 10:35:36;;;;;;;42.03;19.65;;;;;;;-148.23;100.00;61223.13;4977959;28;20470;-66
2022/03/06 10:38:26;;;;;;;47.13;22.13;;;;;;;-148.23;100.00;61223.13;4977840;28;20056;-66
2022/03/06 10:40:53;;;;;;;43.33;20.52;;;;;;;-148.23;100.00;61223.13;4981353;28;20358;-65
2022/03/06 10:43:20;;;;;;;45.97;21.85;;;;;;;-148.23;100.00;61223.13;4979002;28;20370;-65
2022/03/06 10:45:46;;;;;;;43.85;20.90;;;;;;;-148.23;100.00;61223.13;4980349;28;20026;-66
2022/03/06 10:48:12;;;;;;;42.05;20.17;;;;;;;-148.23;100.00;61223.13;4976892;28;20033;-66
2022/03/06 10:50:38;;;;;;;44.00;21.52;;;;;;;-148.23;100.00;61223.13;4981284;28;20037;-66